createdAt,value
2023-02-12T00:01:13.159Z,24.95
2023-02-12T00:03:41.617Z,26.33
2023-02-12T00:06:10.163Z,25.37
2023-02-12T00:08:38.263Z,25.17
2023-02-12T00:11:14.152Z,25.85
2023-02-12T00:13:41.980Z,25.33
2023-02-12T00:16:11.785Z,27.13
2023-02-12T00:18:39.493Z,24.40
2023-02-12T00:21:08.929Z,25.65
2023-02-12T00:23:38.945Z,25.08
2023-02-12T00:26:11.547Z,25.83
2023-02-12T00:28:41.206Z,26.65
2023-02-12T00:31:12.544Z,24.50
2023-02-12T00:33:40.856Z,25.15
2023-02-12T00:36:09.569Z,24.77
2023-02-12T00:38:37.015Z,25.35
2023-02-12T00:41:04.958Z,24.40
2023-02-12T00:43:32.414Z,24.37
2023-02-12T00:46:01.240Z,23.38
2023-02-12T00:48:29.084Z,25.50
2023-02-12T00:50:56.568Z,25.88
2023-02-12T00:53:23.990Z,24.10
2023-02-12T00:55:51.651Z,23.77
2023-02-12T00:58:19.213Z,26.15
2023-02-12T01:00:46.741Z,24.80
2023-02-12T01:03:15.122Z,25.48
2023-02-12T01:05:42.914Z,24.57
2023-02-12T01:08:14.569Z,26.40
2023-02-12T01:10:43.926Z,24.70
2023-02-12T01:13:15.273Z,24.37
2023-02-12T01:15:43.429Z,27.17
2023-02-12T01:18:11.582Z,24.27
2023-02-12T01:20:40.160Z,26.85
2023-02-12T01:23:08.581Z,23.08
2023-02-12T01:25:35.994Z,25.30
2023-02-12T01:28:03.493Z,26.10
2023-02-12T01:30:31.206Z,26.15
2023-02-12T01:32:58.730Z,25.30
2023-02-12T01:35:26.166Z,25.58
2023-02-12T01:37:55.272Z,27.00
2023-02-12T01:40:23.678Z,24.75
2023-02-12T01:42:51.151Z,26.75
2023-02-12T01:45:41.159Z,27.50
2023-02-12T01:48:09.096Z,25.62
2023-02-12T01:50:36.781Z,26.67
2023-02-12T01:53:05.335Z,25.95
2023-02-12T01:55:32.889Z,25.90
2023-02-12T01:58:00.685Z,27.20
2023-02-12T02:00:28.692Z,28.12
2023-02-12T02:03:00.426Z,28.15
2023-02-12T02:05:46.900Z,24.40
2023-02-12T02:08:14.665Z,27.02
2023-02-12T02:10:42.056Z,27.13
2023-02-12T02:13:27.952Z,27.00
2023-02-12T02:16:00.429Z,29.67
2023-02-12T02:18:56.171Z,26.53
2023-02-12T02:21:41.020Z,26.20
2023-02-12T02:24:31.615Z,28.38
2023-02-12T02:27:39.932Z,25.92
2023-02-12T02:30:12.733Z,25.73
2023-02-12T02:32:50.777Z,25.27
2023-02-12T02:35:28.689Z,28.30
2023-02-12T02:38:17.989Z,27.77
2023-02-12T02:40:55.149Z,27.08
2023-02-12T02:43:33.166Z,28.40
2023-02-12T02:46:36.335Z,25.92
2023-02-12T02:49:07.941Z,26.35
2023-02-12T02:51:40.870Z,27.05
2023-02-12T02:54:38.656Z,27.62
2023-02-12T02:57:09.867Z,23.73
2023-02-12T02:59:42.911Z,24.90
2023-02-12T03:02:37.517Z,28.30
2023-02-12T03:05:10.351Z,25.27
2023-02-12T03:07:52.448Z,26.15
2023-02-12T03:10:23.752Z,27.35
2023-02-12T03:13:00.932Z,25.62
2023-02-12T03:15:34.259Z,26.75
2023-02-12T03:18:05.765Z,26.52
2023-02-12T03:20:46.274Z,28.00
2023-02-12T03:23:17.592Z,27.27
2023-02-12T03:25:57.588Z,28.30
2023-02-12T03:28:33.809Z,30.25
2023-02-12T03:31:08.183Z,30.98
2023-02-12T03:33:43.257Z,28.17
2023-02-12T03:36:21.698Z,28.67
2023-02-12T03:38:53.338Z,28.23
2023-02-12T03:41:26.371Z,29.15
2023-02-12T03:43:56.576Z,30.70
2023-02-12T03:46:59.915Z,32.13
2023-02-12T03:49:38.552Z,31.27
2023-02-12T03:52:06.266Z,28.85
2023-02-12T03:54:33.863Z,30.50
2023-02-12T03:57:11.112Z,31.10
2023-02-12T03:59:39.916Z,31.17
2023-02-12T04:02:07.931Z,30.12
2023-02-12T04:04:36.452Z,29.10
2023-02-12T04:07:03.929Z,29.85
2023-02-12T04:09:31.900Z,33.45
2023-02-12T04:12:21.812Z,31.87
2023-02-12T04:15:07.905Z,36.08
2023-02-12T04:18:00.842Z,33.70
2023-02-12T04:20:42.740Z,31.52
2023-02-12T04:23:41.081Z,34.25
2023-02-12T04:26:23.138Z,33.65
2023-02-12T04:29:09.180Z,34.35
2023-02-12T04:31:42.522Z,34.80
2023-02-12T04:34:20.599Z,33.60
2023-02-12T04:36:58.283Z,29.95
2023-02-12T04:39:27.875Z,34.13
2023-02-12T04:41:58.815Z,33.07
2023-02-12T04:44:30.915Z,32.10
2023-02-12T04:46:58.849Z,32.60
2023-02-12T04:49:26.927Z,33.03
2023-02-12T04:51:54.522Z,33.78
2023-02-12T04:54:23.751Z,35.17
2023-02-12T04:56:51.485Z,35.70
2023-02-12T04:59:19.034Z,34.70
2023-02-12T05:01:46.897Z,33.75
2023-02-12T05:04:18.302Z,33.35
2023-02-12T05:06:46.149Z,34.25
2023-02-12T05:09:16.607Z,35.72
2023-02-12T05:11:44.581Z,35.95
2023-02-12T05:14:12.304Z,35.53
2023-02-12T05:16:39.749Z,33.30
2023-02-12T05:19:09.536Z,34.83
2023-02-12T05:21:38.098Z,35.83
2023-02-12T05:24:05.863Z,33.93
2023-02-12T05:26:33.891Z,36.20
2023-02-12T05:29:01.369Z,39.40
2023-02-12T05:31:28.855Z,34.07
2023-02-12T05:33:56.576Z,36.10
2023-02-12T05:36:24.488Z,36.05
2023-02-12T05:38:53.035Z,38.28
2023-02-12T05:41:23.710Z,38.83
2023-02-12T05:43:51.867Z,37.88
2023-02-12T05:46:23.346Z,37.93
2023-02-12T05:48:51.012Z,37.28
2023-02-12T05:51:24.167Z,38.33
2023-02-12T05:53:53.913Z,37.15
2023-02-12T05:56:23.672Z,35.75
2023-02-12T05:58:59.030Z,35.72
2023-02-12T06:01:29.011Z,33.33
2023-02-12T06:03:56.790Z,37.13
2023-02-12T06:06:26.652Z,36.40
2023-02-12T06:08:54.229Z,33.40
2023-02-12T06:11:22.056Z,30.60
2023-02-12T06:13:49.694Z,31.50
2023-02-12T06:16:27.934Z,30.92
2023-02-12T06:18:56.579Z,32.28
2023-02-12T06:21:25.802Z,33.97
2023-02-12T06:23:53.576Z,35.50
2023-02-12T06:26:21.589Z,32.78
2023-02-12T06:28:49.611Z,32.25
2023-02-12T06:31:21.563Z,33.00
2023-02-12T06:33:50.592Z,33.95
2023-02-12T06:36:18.701Z,31.85
2023-02-12T06:38:46.380Z,33.17
2023-02-12T06:41:14.152Z,36.33
2023-02-12T06:43:41.535Z,31.65
2023-02-12T06:46:09.201Z,32.85
2023-02-12T06:48:36.946Z,30.80
2023-02-12T06:51:08.428Z,30.55
2023-02-12T06:53:36.108Z,30.55
2023-02-12T06:56:11.468Z,30.50
2023-02-12T06:58:46.813Z,30.80
2023-02-12T07:01:19.750Z,30.37
2023-02-12T07:03:58.762Z,29.70
2023-02-12T07:06:27.414Z,29.50
2023-02-12T07:08:55.828Z,28.98
2023-02-12T07:11:28.208Z,27.92
2023-02-12T07:13:55.865Z,29.23
2023-02-12T07:16:23.390Z,27.08
2023-02-12T07:18:51.093Z,24.85
2023-02-12T07:21:22.035Z,22.25
2023-02-12T07:23:51.782Z,24.48
2023-02-12T07:26:20.933Z,21.87
2023-02-12T07:28:50.016Z,21.52
2023-02-12T07:31:22.672Z,21.10
2023-02-12T07:33:54.298Z,21.87
2023-02-12T07:36:22.159Z,20.42
2023-02-12T07:38:49.985Z,19.40
2023-02-12T07:41:43.673Z,19.00
2023-02-12T07:44:12.193Z,20.65
2023-02-12T07:46:42.395Z,19.35
2023-02-12T07:49:14.111Z,19.12
2023-02-12T07:51:42.024Z,20.30
2023-02-12T07:54:10.848Z,18.30
2023-02-12T07:56:39.698Z,17.83
2023-02-12T07:59:11.097Z,17.62
2023-02-12T08:01:52.546Z,19.45
2023-02-12T08:04:24.954Z,19.10
2023-02-12T08:06:54.928Z,18.30
2023-02-12T08:09:27.684Z,18.98
2023-02-12T08:11:55.077Z,22.42
2023-02-12T08:14:23.015Z,19.93
2023-02-12T08:16:50.883Z,18.30
2023-02-12T08:19:22.735Z,19.83
2023-02-12T08:21:54.865Z,21.17
2023-02-12T08:24:22.732Z,17.95
2023-02-12T08:26:50.550Z,19.35
2023-02-12T08:29:21.075Z,17.98
2023-02-12T08:31:49.787Z,19.12
2023-02-12T08:34:34.551Z,18.55
2023-02-12T08:37:05.135Z,20.25
2023-02-12T08:39:32.571Z,19.55
2023-02-12T08:42:01.471Z,21.37
2023-02-12T08:44:29.475Z,18.20
2023-02-12T08:46:56.912Z,16.12
2023-02-12T08:49:26.825Z,18.27
2023-02-12T08:51:55.980Z,17.40
2023-02-12T08:54:25.852Z,16.73
2023-02-12T08:56:57.788Z,18.23
2023-02-12T08:59:25.526Z,16.62
2023-02-12T09:01:53.665Z,17.73
2023-02-12T09:04:26.895Z,16.02
2023-02-12T09:06:55.265Z,17.10
2023-02-12T09:09:22.683Z,19.30
2023-02-12T09:11:50.184Z,14.98
2023-02-12T09:14:23.606Z,17.10
2023-02-12T09:49:31.356Z,12.93
2023-02-12T09:52:00.028Z,11.18
2023-02-12T09:54:34.407Z,12.47
2023-02-12T09:57:06.880Z,9.90
2023-02-12T10:07:40.332Z,37.00
2023-02-12T10:10:32.822Z,16.98
2023-02-12T10:13:05.012Z,8.43
2023-02-12T10:15:39.529Z,8.70
2023-02-12T10:18:25.637Z,11.18
2023-02-12T10:21:05.646Z,9.18
2023-02-12T10:26:26.049Z,9.55
2023-02-12T10:28:53.900Z,12.90
2023-02-12T10:31:33.055Z,9.80
2023-02-12T10:34:00.730Z,9.88
2023-02-12T10:36:49.317Z,9.73
2023-02-12T10:39:21.629Z,10.43
2023-02-12T10:41:51.174Z,9.52
2023-02-12T10:44:18.761Z,9.98
2023-02-12T11:04:31.206Z,7.80
2023-02-12T11:09:45.413Z,9.65
2023-02-12T11:12:20.402Z,8.68
2023-02-12T11:17:37.779Z,10.38
2023-02-12T11:20:21.764Z,7.95
2023-02-12T11:23:01.511Z,8.25
2023-02-12T11:25:32.452Z,7.90
2023-02-12T11:28:17.147Z,7.65
2023-02-12T11:30:59.776Z,11.02
2023-02-12T11:33:35.109Z,11.60
2023-02-12T11:36:13.016Z,10.40
2023-02-12T11:38:54.836Z,8.02
2023-02-12T11:41:36.573Z,9.43
2023-02-12T11:44:19.830Z,8.38
2023-02-12T11:46:52.247Z,7.47
2023-02-12T11:49:30.735Z,8.48
2023-02-12T11:52:00.770Z,8.65
2023-02-12T11:54:31.329Z,8.77
2023-02-12T11:56:59.237Z,8.85
2023-02-12T11:59:38.917Z,6.28
2023-02-12T12:02:27.557Z,8.75
2023-02-12T12:05:11.489Z,7.57
2023-02-12T12:07:45.236Z,7.93
2023-02-12T12:10:22.074Z,6.97
2023-02-12T12:12:58.858Z,7.75
2023-02-12T12:15:49.960Z,7.05
2023-02-12T12:18:51.927Z,8.60
2023-02-12T12:21:47.131Z,7.43
2023-02-12T12:24:21.403Z,7.12
2023-02-12T12:29:50.158Z,7.75
2023-02-12T12:32:21.133Z,7.43
2023-02-12T12:34:48.768Z,8.02
2023-02-12T12:37:41.837Z,7.00
2023-02-12T12:40:47.799Z,8.15
2023-02-12T12:43:21.156Z,9.48
2023-02-12T12:46:15.673Z,9.83
2023-02-12T12:49:03.460Z,8.75
2023-02-12T12:51:46.124Z,20.05
2023-02-12T12:54:27.033Z,37.28
2023-02-12T12:57:24.037Z,20.85
2023-02-12T13:00:06.726Z,11.20
2023-02-12T13:03:07.186Z,17.92
2023-02-12T13:06:00.853Z,7.25
2023-02-12T13:08:54.053Z,6.22
2023-02-12T13:11:30.157Z,6.50
2023-02-12T13:14:13.376Z,6.43
2023-02-12T13:16:47.467Z,6.22
2023-02-12T13:19:33.762Z,7.18
2023-02-12T13:22:31.020Z,10.68
2023-02-12T13:25:18.470Z,6.40
2023-02-12T13:27:49.080Z,7.12
2023-02-12T13:30:24.266Z,9.55
2023-02-12T13:33:25.634Z,9.32
2023-02-12T13:35:57.188Z,14.60
2023-02-12T13:38:33.634Z,16.92
2023-02-12T13:41:06.196Z,16.27
2023-02-12T13:43:43.280Z,19.23
2023-02-12T13:46:11.814Z,20.85
2023-02-12T13:49:15.340Z,20.33
2023-02-12T13:51:47.103Z,25.37
2023-02-12T13:54:20.929Z,21.62
2023-02-12T13:56:54.660Z,29.33
2023-02-12T13:59:32.454Z,22.65
2023-02-12T14:02:34.574Z,29.60
2023-02-12T14:05:17.157Z,22.80
2023-02-12T14:07:54.806Z,25.23
2023-02-12T14:10:33.333Z,22.80
2023-02-12T14:13:30.069Z,25.02
2023-02-12T14:15:59.887Z,24.92
2023-02-12T14:18:33.622Z,26.92
2023-02-12T14:21:14.388Z,26.65
2023-02-12T14:36:33.786Z,27.13
2023-02-12T14:39:19.946Z,26.33
2023-02-12T15:08:35.565Z,33.72
2023-02-12T15:11:09.918Z,33.05
2023-02-12T15:14:02.260Z,38.85
2023-02-12T15:16:50.553Z,35.95
2023-02-12T15:52:20.880Z,36.65
2023-02-12T15:54:51.421Z,36.10
2023-02-12T15:57:24.592Z,38.90
2023-02-12T15:59:56.040Z,37.00
2023-02-12T16:09:57.978Z,46.13
2023-02-12T16:12:31.221Z,40.40
2023-02-12T18:56:28.752Z,84.00
2023-02-12T19:04:02.889Z,107.80
2023-02-12T19:06:34.482Z,153.18
2023-02-12T19:09:05.469Z,166.23
2023-02-12T19:11:37.279Z,184.33
2023-02-12T19:14:07.237Z,101.00
2023-02-12T19:16:37.143Z,67.97
2023-02-12T19:19:06.533Z,58.33
2023-02-12T19:21:36.935Z,50.20
2023-02-12T19:24:14.005Z,54.80
2023-02-12T19:26:44.865Z,47.80
2023-02-12T19:29:22.701Z,55.25
2023-02-12T19:31:52.145Z,52.50
2023-02-12T19:34:22.912Z,93.40
2023-02-12T19:36:53.103Z,85.75
2023-02-12T19:39:25.226Z,68.03
2023-02-12T19:41:58.761Z,54.22
2023-02-12T19:44:28.858Z,52.50
2023-02-12T19:46:58.405Z,48.33
2023-02-12T19:49:30.041Z,56.15
2023-02-12T19:52:00.791Z,41.97
2023-02-12T19:54:29.698Z,41.30
2023-02-12T19:56:58.758Z,41.65
2023-02-12T19:59:31.381Z,46.92
2023-02-12T20:02:00.639Z,45.83
2023-02-12T20:04:31.192Z,48.57
2023-02-12T20:07:00.342Z,46.95
2023-02-12T20:09:29.561Z,47.83
2023-02-12T20:11:59.753Z,45.80
2023-02-12T20:14:28.624Z,53.47
2023-02-12T20:16:59.319Z,50.08
2023-02-12T20:19:32.985Z,43.50
2023-02-12T20:22:04.345Z,44.67
2023-02-12T20:24:34.004Z,47.90
2023-02-12T20:27:04.304Z,44.75
2023-02-12T20:29:35.390Z,53.38
2023-02-12T20:32:04.333Z,73.22
2023-02-12T20:34:49.096Z,85.95
2023-02-12T20:37:26.060Z,80.82
2023-02-12T20:39:56.573Z,65.97
2023-02-12T20:42:27.861Z,50.10
2023-02-12T20:44:57.159Z,51.88
2023-02-12T20:47:28.542Z,71.55
2023-02-12T20:49:57.529Z,59.20
2023-02-12T20:52:26.580Z,36.80
2023-02-12T20:54:55.758Z,46.37
2023-02-12T20:57:25.626Z,51.95
2023-02-12T20:59:54.400Z,48.08
2023-02-12T21:02:23.255Z,52.13
2023-02-12T21:04:53.240Z,53.20
2023-02-12T21:07:21.701Z,54.58
2023-02-12T21:09:51.540Z,46.22
2023-02-12T21:12:29.978Z,43.50
2023-02-12T21:14:58.140Z,42.38
2023-02-12T21:17:28.355Z,48.10
2023-02-12T21:19:56.997Z,45.03
2023-02-12T21:22:25.682Z,48.42
2023-02-12T21:24:56.303Z,60.10
2023-02-12T21:27:24.947Z,57.85
2023-02-12T21:29:56.838Z,71.53
2023-02-12T21:32:25.597Z,87.93
2023-02-12T21:34:54.674Z,115.22
2023-02-12T21:37:24.697Z,91.10
2023-02-12T21:39:52.758Z,91.30
2023-02-12T21:42:22.130Z,107.85
2023-02-12T21:44:49.765Z,115.10
2023-02-12T21:47:17.334Z,122.70
2023-02-12T21:49:47.100Z,132.98
2023-02-12T21:52:15.272Z,124.57
2023-02-12T21:54:42.774Z,107.47
2023-02-12T21:57:13.880Z,111.15
2023-02-12T21:59:41.522Z,104.68
2023-02-12T22:02:09.270Z,107.65
2023-02-12T22:04:37.037Z,92.32
2023-02-12T22:07:04.827Z,81.78
2023-02-12T22:09:32.311Z,76.85
2023-02-12T22:12:00.010Z,82.35
2023-02-12T22:14:27.432Z,77.12
2023-02-12T22:16:54.879Z,78.10
2023-02-12T22:19:22.633Z,72.55
2023-02-12T22:21:51.795Z,85.75
2023-02-12T22:24:19.511Z,83.70
2023-02-12T22:26:47.576Z,78.78
2023-02-12T22:29:15.996Z,71.72
2023-02-12T22:31:45.198Z,72.40
2023-02-12T22:34:15.673Z,64.00
2023-02-12T22:36:44.895Z,59.28
2023-02-12T22:39:13.746Z,61.20
2023-02-12T22:41:44.378Z,63.72
2023-02-12T22:44:12.875Z,60.97
2023-02-12T22:46:41.821Z,61.95
2023-02-12T22:49:09.442Z,64.83
2023-02-12T22:51:39.012Z,59.92
2023-02-12T22:54:07.786Z,61.85
2023-02-12T22:56:35.191Z,58.67
2023-02-12T22:59:02.768Z,54.97
2023-02-12T23:01:31.325Z,50.80
2023-02-12T23:03:59.313Z,50.22
2023-02-12T23:06:29.347Z,47.47
2023-02-12T23:09:04.004Z,46.42
2023-02-12T23:11:32.788Z,43.65
2023-02-12T23:14:00.777Z,46.37
2023-02-12T23:16:28.210Z,43.15
2023-02-12T23:18:57.644Z,42.83
2023-02-12T23:21:26.684Z,41.33
2023-02-12T23:23:54.391Z,41.37
2023-02-12T23:26:22.360Z,37.40
2023-02-12T23:28:50.192Z,37.05
2023-02-12T23:31:17.897Z,38.67
2023-02-12T23:33:45.480Z,37.38
2023-02-12T23:36:13.201Z,35.03
2023-02-12T23:38:40.616Z,36.15
2023-02-12T23:41:08.021Z,35.47
2023-02-12T23:43:35.736Z,36.13
2023-02-12T23:46:04.032Z,33.28
2023-02-12T23:48:31.459Z,33.58
2023-02-12T23:50:59.416Z,33.92
2023-02-12T23:53:27.068Z,35.65
2023-02-12T23:55:54.457Z,35.97
2023-02-12T23:58:22.200Z,36.22
